createdAt,value
2018-06-17T00:01:51.807Z,101355.97
2018-06-17T00:04:20.269Z,101349.86
2018-06-17T00:06:48.722Z,101354.55
2018-06-17T00:09:17.313Z,101360.66
2018-06-17T00:11:46.217Z,101363.13
2018-06-17T00:14:14.777Z,101351.22
2018-06-17T00:16:43.183Z,101356.38
2018-06-17T00:19:11.790Z,101358.76
2018-06-17T00:21:40.078Z,101354.22
2018-06-17T00:24:08.769Z,101354.17
2018-06-17T00:26:37.344Z,101351.15
2018-06-17T00:29:05.839Z,101350.19
2018-06-17T00:31:34.351Z,101354.08
2018-06-17T00:34:02.819Z,101362.87
2018-06-17T00:36:31.236Z,101360.98
2018-06-17T00:38:59.760Z,101363.26
2018-06-17T00:41:28.248Z,101358.63
2018-06-17T00:43:56.800Z,101357.86
2018-06-17T00:46:25.383Z,101363.25
2018-06-17T00:48:53.807Z,101368.16
2018-06-17T00:51:22.300Z,101369.89
2018-06-17T00:53:50.812Z,101373.31
2018-06-17T00:56:19.294Z,101373.31
2018-06-17T00:58:47.885Z,101371.53
2018-06-17T01:01:16.736Z,101369.16
2018-06-17T01:03:45.433Z,101376.52
2018-06-17T01:06:13.859Z,101381.38
2018-06-17T01:08:42.225Z,101375.16
2018-06-17T01:11:10.772Z,101375.63
2018-06-17T01:13:39.778Z,101375.20
2018-06-17T01:16:08.195Z,101377.52
2018-06-17T01:18:36.420Z,101375.80
2018-06-17T01:21:05.111Z,101372.23
2018-06-17T01:23:33.504Z,101375.72
2018-06-17T01:26:09.087Z,101374.38
2018-06-17T01:28:38.953Z,101369.81
2018-06-17T01:31:07.695Z,101373.70
2018-06-17T01:33:36.023Z,101374.57
2018-06-17T01:36:04.537Z,101378.39
2018-06-17T01:38:33.178Z,101373.23
2018-06-17T01:41:01.879Z,101373.72
2018-06-17T01:43:30.529Z,101372.59
2018-06-17T01:45:59.153Z,101361.59
2018-06-17T01:48:28.016Z,101359.98
2018-06-17T01:50:56.753Z,101357.06
2018-06-17T01:53:25.100Z,101360.95
2018-06-17T01:55:53.736Z,101358.19
2018-06-17T01:58:22.152Z,101353.34
2018-06-17T02:00:50.643Z,101353.34
2018-06-17T02:03:24.777Z,101346.67
2018-06-17T02:05:59.060Z,101346.05
2018-06-17T02:08:33.272Z,101356.27
2018-06-17T02:11:07.469Z,101358.73
2018-06-17T02:13:35.810Z,101350.80
2018-06-17T02:16:04.241Z,101351.92
2018-06-17T02:18:32.801Z,101365.09
2018-06-17T02:21:01.048Z,101364.83
2018-06-17T02:23:29.858Z,101369.91
2018-06-17T02:25:58.702Z,101369.67
2018-06-17T02:28:27.205Z,101366.12
2018-06-17T02:30:56.081Z,101363.48
2018-06-17T02:33:24.895Z,101363.67
2018-06-17T02:35:53.852Z,101369.13
2018-06-17T02:38:22.273Z,101363.13
2018-06-17T02:40:50.962Z,101361.52
2018-06-17T02:43:19.412Z,101367.72
2018-06-17T02:45:53.605Z,101365.18
2018-06-17T02:48:27.615Z,101373.11
2018-06-17T02:51:01.606Z,101366.02
2018-06-17T02:53:35.710Z,101369.52
2018-06-17T02:56:04.168Z,101370.32
2018-06-17T02:58:32.872Z,101369.84
2018-06-17T03:01:01.455Z,101374.11
2018-06-17T03:03:29.835Z,101371.73
2018-06-17T03:05:58.630Z,101373.95
2018-06-17T03:08:27.437Z,101377.64
2018-06-17T03:10:55.843Z,101382.45
2018-06-17T03:13:24.228Z,101381.97
2018-06-17T03:15:52.687Z,101377.38
2018-06-17T03:18:21.351Z,101376.58
2018-06-17T03:20:49.964Z,101382.61
2018-06-17T03:23:18.637Z,101384.98
2018-06-17T03:25:52.339Z,101387.67
2018-06-17T03:28:26.105Z,101386.33
2018-06-17T03:31:00.292Z,101384.11
2018-06-17T03:33:34.288Z,101386.56
2018-06-17T03:36:10.125Z,101384.18
2018-06-17T03:38:39.819Z,101383.95
2018-06-17T03:41:08.988Z,101391.08
2018-06-17T03:43:37.858Z,101386.49
2018-06-17T03:46:06.397Z,101384.98
2018-06-17T03:48:34.996Z,101393.30
2018-06-17T03:51:03.391Z,101393.77
2018-06-17T03:53:32.115Z,101382.45
2018-06-17T03:56:00.889Z,101387.91
2018-06-17T03:58:29.460Z,101393.55
2018-06-17T04:00:58.162Z,101389.50
2018-06-17T04:03:26.757Z,101381.72
2018-06-17T04:05:55.477Z,101383.80
2018-06-17T04:08:24.142Z,101385.47
2018-06-17T04:10:52.599Z,101388.38
2018-06-17T04:13:20.970Z,101397.44
2018-06-17T04:15:49.377Z,101391.80
2018-06-17T04:18:17.838Z,101394.36
2018-06-17T04:20:46.353Z,101396.03
2018-06-17T04:23:14.827Z,101396.89
2018-06-17T04:25:43.733Z,101399.91
2018-06-17T04:28:12.274Z,101397.54
2018-06-17T04:30:40.743Z,101399.27
2018-06-17T04:33:09.120Z,101396.41
2018-06-17T04:35:38.632Z,101393.97
2018-06-17T04:38:07.046Z,101390.70
2018-06-17T04:40:35.551Z,101392.20
2018-06-17T04:43:04.122Z,101395.92
2018-06-17T04:45:32.777Z,101392.61
2018-06-17T04:48:01.273Z,101391.00
2018-06-17T04:50:29.929Z,101395.91
2018-06-17T04:52:58.944Z,101395.20
2018-06-17T04:55:27.363Z,101393.69
2018-06-17T04:57:56.011Z,101392.08
2018-06-17T05:00:24.733Z,101389.07
2018-06-17T05:02:53.166Z,101393.02
2018-06-17T05:05:21.708Z,101391.67
2018-06-17T05:07:50.185Z,101389.30
2018-06-17T05:10:18.545Z,101389.37
2018-06-17T05:12:47.123Z,101394.41
2018-06-17T05:15:15.498Z,101391.16
2018-06-17T05:17:44.044Z,101387.44
2018-06-17T05:20:12.616Z,101389.87
2018-06-17T05:22:40.953Z,101394.66
2018-06-17T05:25:09.646Z,101392.58
2018-06-17T05:27:38.662Z,101396.37
2018-06-17T05:30:07.019Z,101397.39
2018-06-17T05:32:35.646Z,101402.31
2018-06-17T05:35:04.385Z,101407.47
2018-06-17T05:37:33.913Z,101408.19
2018-06-17T05:40:02.467Z,101407.62
2018-06-17T05:42:30.927Z,101414.08
2018-06-17T05:44:59.468Z,101412.05
2018-06-17T05:47:27.991Z,101409.34
2018-06-17T05:49:56.913Z,101407.80
2018-06-17T05:52:25.364Z,101407.59
2018-06-17T05:54:53.985Z,101410.45
2018-06-17T05:57:22.446Z,101414.42
2018-06-17T05:59:50.917Z,101410.91
2018-06-17T06:02:19.445Z,101411.94
2018-06-17T06:04:48.002Z,101409.03
2018-06-17T06:07:16.618Z,101408.77
2018-06-17T06:09:45.153Z,101416.31
2018-06-17T06:12:13.722Z,101408.80
2018-06-17T06:14:42.211Z,101417.69
2018-06-17T06:17:10.785Z,101413.95
2018-06-17T06:19:39.433Z,101410.06
2018-06-17T06:22:08.308Z,101400.98
2018-06-17T06:24:37.243Z,101406.44
2018-06-17T06:27:05.764Z,101412.23
2018-06-17T06:29:34.397Z,101413.92
2018-06-17T06:32:03.172Z,101420.48
2018-06-17T06:34:31.655Z,101419.46
2018-06-17T06:37:10.386Z,101416.37
2018-06-17T06:39:39.210Z,101422.80
2018-06-17T06:42:07.889Z,101425.17
2018-06-17T06:44:36.382Z,101428.09
2018-06-17T06:47:05.146Z,101432.16
2018-06-17T06:49:33.391Z,101434.84
2018-06-17T06:52:01.849Z,101433.70
2018-06-17T06:54:30.392Z,101432.13
2018-06-17T06:56:59.013Z,101439.42
2018-06-17T06:59:27.620Z,101442.39
2018-06-17T07:02:13.191Z,101443.78
2018-06-17T07:04:58.802Z,101448.77
2018-06-17T07:07:44.484Z,101447.64
2018-06-17T07:10:27.261Z,101452.03
2018-06-17T07:12:56.283Z,101454.95
2018-06-17T07:15:41.680Z,101450.81
2018-06-17T07:18:37.604Z,101449.66
2018-06-17T07:21:06.629Z,101457.80
2018-06-17T07:23:35.168Z,101455.77
2018-06-17T07:27:00.755Z,101468.47
2018-06-17T07:29:42.833Z,101471.67
2018-06-17T07:32:11.310Z,101472.39
2018-06-17T07:34:40.217Z,101470.05
2018-06-17T07:37:08.735Z,101470.56
2018-06-17T07:41:05.247Z,101468.48
2018-06-17T07:43:34.150Z,101473.82
2018-06-17T07:46:04.397Z,101472.05
2018-06-17T07:49:50.168Z,101464.97
2018-06-17T07:52:36.954Z,101469.67
2018-06-17T07:55:05.841Z,101471.86
2018-06-17T07:57:34.917Z,101473.02
2018-06-17T08:00:03.475Z,101479.91
2018-06-17T08:02:32.200Z,101477.11
2018-06-17T08:05:01.065Z,101479.02
2018-06-17T08:07:29.933Z,101482.52
2018-06-17T08:09:58.564Z,101480.66
2018-06-17T08:12:27.174Z,101476.24
2018-06-17T08:14:55.578Z,101474.63
2018-06-17T08:17:24.056Z,101479.62
2018-06-17T08:19:52.628Z,101473.27
2018-06-17T08:22:21.296Z,101469.42
2018-06-17T08:24:49.836Z,101468.84
2018-06-17T08:27:18.442Z,101462.84
2018-06-17T08:29:46.806Z,101470.77
2018-06-17T08:32:15.374Z,101465.38
2018-06-17T08:34:43.841Z,101463.38
2018-06-17T08:37:12.508Z,101464.71
2018-06-17T08:39:41.023Z,101456.47
2018-06-17T08:42:09.547Z,101470.92
2018-06-17T08:44:38.089Z,101475.09
2018-06-17T08:47:06.887Z,101477.47
2018-06-17T08:49:35.414Z,101464.02
2018-06-17T08:52:04.348Z,101461.61
2018-06-17T08:54:33.123Z,101466.56
2018-06-17T08:57:04.606Z,101461.61
2018-06-17T08:59:33.219Z,101460.23
2018-06-17T09:02:01.868Z,101463.47
2018-06-17T09:04:30.424Z,101465.23
2018-06-17T09:06:59.013Z,101465.41
2018-06-17T09:09:27.547Z,101472.55
2018-06-17T09:11:56.086Z,101474.91
2018-06-17T09:14:24.851Z,101480.06
2018-06-17T09:16:53.377Z,101472.94
2018-06-17T09:19:22.098Z,101480.28
2018-06-17T09:21:51.006Z,101478.66
2018-06-17T09:24:19.441Z,101476.88
2018-06-17T09:26:47.853Z,101475.95
2018-06-17T09:29:16.273Z,101474.17
2018-06-17T09:31:44.887Z,101478.48
2018-06-17T09:34:13.507Z,101477.66
2018-06-17T09:36:42.297Z,101473.50
2018-06-17T09:39:10.978Z,101478.91
2018-06-17T09:41:39.504Z,101471.32
2018-06-17T09:44:08.147Z,101481.59
2018-06-17T09:46:36.637Z,101480.10
2018-06-17T09:49:05.497Z,101482.16
2018-06-17T09:51:34.183Z,101490.34
2018-06-17T09:54:02.699Z,101490.31
2018-06-17T09:56:31.553Z,101499.73
2018-06-17T09:59:00.108Z,101494.29
2018-06-17T10:01:28.987Z,101487.52
2018-06-17T10:03:57.624Z,101497.45
2018-06-17T10:06:26.093Z,101492.11
2018-06-17T10:08:54.925Z,101494.41
2018-06-17T10:11:23.348Z,101487.16
2018-06-17T10:13:51.595Z,101498.84
2018-06-17T10:16:20.375Z,101488.58
2018-06-17T10:18:49.315Z,101488.68
2018-06-17T10:21:18.279Z,101487.83
2018-06-17T10:23:46.820Z,101497.58
2018-06-17T10:26:15.555Z,101496.92
2018-06-17T10:28:44.160Z,101493.66
2018-06-17T10:31:12.481Z,101496.42
2018-06-17T10:33:41.049Z,101500.11
2018-06-17T10:36:09.528Z,101500.38
2018-06-17T10:38:37.996Z,101506.71
2018-06-17T10:41:06.526Z,101511.36
2018-06-17T10:43:35.234Z,101504.47
2018-06-17T10:46:03.892Z,101519.62
2018-06-17T10:48:32.337Z,101506.72
2018-06-17T10:51:01.050Z,101515.39
2018-06-17T10:53:30.029Z,101521.91
2018-06-17T10:55:58.475Z,101512.43
2018-06-17T10:58:26.961Z,101516.80
2018-06-17T11:00:55.443Z,101519.39
2018-06-17T11:03:23.746Z,101517.77
2018-06-17T11:05:52.389Z,101515.50
2018-06-17T11:08:21.257Z,101515.52
2018-06-17T11:10:49.760Z,101519.97
2018-06-17T11:13:18.475Z,101519.70
2018-06-17T11:15:47.413Z,101522.08
2018-06-17T11:18:16.210Z,101529.47
2018-06-17T11:20:44.923Z,101529.61
2018-06-17T11:23:13.342Z,101534.98
2018-06-17T11:25:42.115Z,101530.45
2018-06-17T11:28:10.986Z,101534.31
2018-06-17T11:30:39.653Z,101539.08
2018-06-17T11:33:08.532Z,101535.78
2018-06-17T11:35:37.102Z,101542.91
2018-06-17T11:38:05.807Z,101536.37
2018-06-17T11:40:34.289Z,101543.13
2018-06-17T11:43:02.754Z,101547.44
2018-06-17T11:45:31.669Z,101540.65
2018-06-17T11:48:00.605Z,101544.27
2018-06-17T11:50:29.260Z,101540.86
2018-06-17T11:52:57.790Z,101551.72
2018-06-17T11:55:26.381Z,101548.80
2018-06-17T11:57:55.021Z,101541.32
2018-06-17T12:00:23.859Z,101550.25
2018-06-17T12:02:52.255Z,101549.91
2018-06-17T12:05:21.179Z,101551.27
2018-06-17T12:07:49.852Z,101554.91
2018-06-17T12:10:18.723Z,101555.56
2018-06-17T12:12:47.204Z,101552.74
2018-06-17T12:15:15.909Z,101561.19
2018-06-17T12:17:44.368Z,101560.45
2018-06-17T12:20:13.048Z,101564.14
2018-06-17T12:22:41.468Z,101565.52
2018-06-17T12:25:10.824Z,101571.86
2018-06-17T12:27:39.276Z,101568.23
2018-06-17T12:30:07.558Z,101562.52
2018-06-17T12:32:36.176Z,101565.60
2018-06-17T12:35:04.874Z,101566.59
2018-06-17T12:37:33.437Z,101566.11
2018-06-17T12:40:02.058Z,101567.41
2018-06-17T12:42:30.697Z,101564.77
2018-06-17T12:44:59.211Z,101567.73
2018-06-17T12:47:27.732Z,101565.23
2018-06-17T12:49:56.395Z,101563.69
2018-06-17T12:52:25.117Z,101565.33
2018-06-17T12:54:53.503Z,101567.45
2018-06-17T12:57:22.261Z,101559.09
2018-06-17T12:59:50.682Z,101559.66
2018-06-17T13:02:19.204Z,101562.93
2018-06-17T13:04:47.737Z,101558.47
2018-06-17T13:07:16.269Z,101560.19
2018-06-17T13:09:44.946Z,101575.47
2018-06-17T13:12:13.636Z,101576.94
2018-06-17T13:14:42.215Z,101575.38
2018-06-17T13:17:10.814Z,101569.46
2018-06-17T13:19:39.269Z,101568.50
2018-06-17T13:22:07.831Z,101572.26
2018-06-17T13:24:36.423Z,101577.83
2018-06-17T13:27:05.063Z,101576.44
2018-06-17T13:29:33.554Z,101589.36
2018-06-17T13:32:02.154Z,101576.27
2018-06-17T13:34:30.826Z,101567.20
2018-06-17T13:36:59.345Z,101569.27
2018-06-17T13:39:27.932Z,101579.03
2018-06-17T13:41:56.649Z,101576.14
2018-06-17T13:44:25.689Z,101578.01
2018-06-17T13:46:54.290Z,101578.25
2018-06-17T13:49:22.912Z,101578.01
2018-06-17T13:51:51.843Z,101575.27
2018-06-17T13:54:20.540Z,101574.45
2018-06-17T13:56:49.390Z,101573.20
2018-06-17T13:59:18.053Z,101570.41
2018-06-17T14:01:46.819Z,101573.22
2018-06-17T14:04:15.584Z,101578.95
2018-06-17T14:06:44.369Z,101585.89
2018-06-17T14:09:13.542Z,101581.04
2018-06-17T14:11:42.129Z,101576.75
2018-06-17T14:14:10.894Z,101580.73
2018-06-17T14:16:40.191Z,101582.96
2018-06-17T14:19:08.658Z,101581.76
2018-06-17T14:21:37.063Z,101591.17
2018-06-17T14:24:05.616Z,101593.78
2018-06-17T14:26:34.254Z,101589.56
2018-06-17T14:29:03.172Z,101599.92
2018-06-17T14:31:31.768Z,101598.56
2018-06-17T14:34:00.361Z,101599.25
2018-06-17T14:36:28.888Z,101597.20
2018-06-17T14:38:57.308Z,101603.64
2018-06-17T14:41:25.822Z,101598.25
2018-06-17T14:43:59.817Z,101592.17
2018-06-17T14:46:33.960Z,101588.10
2018-06-17T14:49:08.909Z,101585.30
2018-06-17T14:51:43.174Z,101593.89
2018-06-17T14:54:11.515Z,101599.21
2018-06-17T14:56:40.023Z,101600.37
2018-06-17T14:59:08.379Z,101601.94
2018-06-17T15:01:36.989Z,101598.54
2018-06-17T15:04:05.729Z,101605.56
2018-06-17T15:06:34.427Z,101600.23
2018-06-17T15:09:03.495Z,101605.45
2018-06-17T15:11:32.209Z,101594.76
2018-06-17T15:14:01.114Z,101598.25
2018-06-17T15:16:29.644Z,101603.33
2018-06-17T15:18:58.167Z,101598.91
2018-06-17T15:21:26.944Z,101595.70
2018-06-17T15:23:55.651Z,101598.45
2018-06-17T15:26:24.245Z,101598.91
2018-06-17T15:28:52.733Z,101599.95
2018-06-17T15:31:26.788Z,101602.83
2018-06-17T15:34:01.030Z,101600.47
2018-06-17T15:37:37.898Z,101609.18
2018-06-17T15:40:06.768Z,101610.66
2018-06-17T15:42:35.372Z,101603.74
2018-06-17T15:45:04.051Z,101601.25
2018-06-17T15:47:32.494Z,101602.86
2018-06-17T15:50:01.090Z,101601.03
2018-06-17T15:52:29.691Z,101592.89
2018-06-17T15:54:58.505Z,101596.48
2018-06-17T15:57:27.297Z,101596.89
2018-06-17T15:59:55.998Z,101596.19
2018-06-17T16:02:24.538Z,101588.77
2018-06-17T16:04:52.958Z,101592.70
2018-06-17T16:07:21.727Z,101593.42
2018-06-17T16:09:50.249Z,101593.30
2018-06-17T16:12:24.468Z,101587.45
2018-06-17T16:14:58.535Z,101596.28
2018-06-17T16:17:32.692Z,101599.65
2018-06-17T16:20:07.145Z,101599.07
2018-06-17T16:22:35.823Z,101597.86
2018-06-17T16:25:04.729Z,101603.28
2018-06-17T16:27:33.727Z,101601.70
2018-06-17T16:30:02.006Z,101604.34
2018-06-17T16:32:30.554Z,101596.70
2018-06-17T16:34:59.692Z,101603.39
2018-06-17T16:37:28.176Z,101600.91
2018-06-17T16:39:56.997Z,101601.03
2018-06-17T16:42:25.451Z,101610.09
2018-06-17T16:44:54.127Z,101611.36
2018-06-17T16:47:22.665Z,101610.54
2018-06-17T16:49:51.188Z,101612.78
2018-06-17T16:52:25.227Z,101613.94
2018-06-17T16:54:59.428Z,101622.06
2018-06-17T16:57:33.578Z,101618.42
2018-06-17T17:00:06.620Z,101618.66
2018-06-17T17:02:34.976Z,101624.07
2018-06-17T17:05:03.649Z,101627.13
2018-06-17T17:07:32.145Z,101636.73
2018-06-17T17:10:00.887Z,101638.65
2018-06-17T17:12:29.716Z,101633.78
2018-06-17T17:14:58.180Z,101633.97
2018-06-17T17:17:26.579Z,101635.33
2018-06-17T17:19:55.187Z,101635.25
2018-06-17T17:22:23.697Z,101634.52
2018-06-17T17:24:52.239Z,101645.47
2018-06-17T17:27:20.788Z,101647.42
2018-06-17T17:29:49.980Z,101643.70
2018-06-17T17:32:24.183Z,101648.45
2018-06-17T17:34:58.252Z,101652.62
2018-06-17T17:38:31.186Z,101651.94
2018-06-17T17:41:01.789Z,101649.36
2018-06-17T17:43:30.478Z,101649.41
2018-06-17T17:46:04.639Z,101647.59
2018-06-17T17:48:33.276Z,101646.16
2018-06-17T17:51:02.153Z,101651.42
2018-06-17T17:53:30.948Z,101658.45
2018-06-17T17:56:00.170Z,101656.07
2018-06-17T17:58:29.237Z,101653.73
2018-06-17T18:00:58.272Z,101650.14
2018-06-17T18:03:27.220Z,101654.24
2018-06-17T18:05:55.804Z,101654.94
2018-06-17T18:08:24.530Z,101663.71
2018-06-17T18:10:53.079Z,101658.52
2018-06-17T18:13:21.955Z,101660.60
2018-06-17T18:15:50.533Z,101659.84
2018-06-17T18:18:19.063Z,101659.33
2018-06-17T18:20:47.483Z,101654.80
2018-06-17T18:23:16.161Z,101654.42
2018-06-17T18:26:50.779Z,101653.80
2018-06-17T18:29:24.959Z,101652.66
2018-06-17T18:31:59.218Z,101657.11
2018-06-17T18:34:33.463Z,101666.11
2018-06-17T18:37:02.269Z,101666.66
2018-06-17T18:39:31.189Z,101667.98
2018-06-17T18:42:00.115Z,101667.34
2018-06-17T18:44:28.795Z,101671.19
2018-06-17T18:46:57.260Z,101672.28
2018-06-17T18:49:25.919Z,101673.56
2018-06-17T18:51:54.459Z,101679.61
2018-06-17T18:54:23.168Z,101686.05
2018-06-17T18:56:52.091Z,101682.31
2018-06-17T18:59:20.625Z,101688.65
2018-06-17T19:01:49.268Z,101686.16
2018-06-17T19:04:17.896Z,101687.86
2018-06-17T19:06:46.721Z,101690.56
2018-06-17T19:09:21.138Z,101689.27
2018-06-17T19:11:55.651Z,101690.06
2018-06-17T19:14:29.819Z,101697.27
2018-06-17T19:17:03.948Z,101691.79
2018-06-17T19:19:32.444Z,101699.30
2018-06-17T19:22:01.329Z,101697.47
2018-06-17T19:24:29.815Z,101696.47
2018-06-17T19:26:58.594Z,101693.57
2018-06-17T19:29:27.109Z,101702.06
2018-06-17T19:31:55.544Z,101697.44
2018-06-17T19:34:24.151Z,101695.45
2018-06-17T19:36:52.689Z,101696.18
2018-06-17T19:39:21.261Z,101700.14
2018-06-17T19:41:49.624Z,101703.66
2018-06-17T19:44:18.383Z,101715.47
2018-06-17T19:46:47.138Z,101710.73
2018-06-17T19:49:15.893Z,101714.01
2018-06-17T19:51:49.915Z,101710.36
2018-06-17T19:54:24.048Z,101710.39
2018-06-17T19:56:58.322Z,101709.67
2018-06-17T19:59:32.428Z,101715.89
2018-06-17T20:02:01.166Z,101715.33
2018-06-17T20:04:29.940Z,101717.13
2018-06-17T20:06:58.255Z,101717.77
2018-06-17T20:09:26.791Z,101723.28
2018-06-17T20:11:55.433Z,101723.56
2018-06-17T20:14:24.328Z,101724.31
2018-06-17T20:16:52.930Z,101729.11
2018-06-17T20:19:21.677Z,101734.68
2018-06-17T20:21:50.244Z,101731.64
2018-06-17T20:24:18.853Z,101726.02
2018-06-17T20:26:47.600Z,101727.39
2018-06-17T20:29:16.205Z,101730.78
2018-06-17T20:31:50.491Z,101738.23
2018-06-17T20:34:24.636Z,101736.17
2018-06-17T20:36:58.692Z,101737.92
2018-06-17T20:39:32.873Z,101736.58
2018-06-17T20:42:07.191Z,101736.83
2018-06-17T20:44:36.111Z,101738.30
2018-06-17T20:47:04.727Z,101736.89
2018-06-17T20:49:33.246Z,101733.19
2018-06-17T20:52:01.831Z,101731.44
2018-06-17T20:54:30.701Z,101733.47
2018-06-17T20:56:59.183Z,101732.15
2018-06-17T20:59:27.829Z,101729.22
2018-06-17T21:01:56.574Z,101724.48
2018-06-17T21:04:24.992Z,101731.12
2018-06-17T21:06:53.724Z,101731.61
2018-06-17T21:09:22.252Z,101731.69
2018-06-17T21:11:50.891Z,101731.83
2018-06-17T21:14:19.548Z,101726.70
2018-06-17T21:16:48.115Z,101731.87
2018-06-17T21:19:22.100Z,101724.80
2018-06-17T21:21:56.217Z,101732.67
2018-06-17T21:24:30.044Z,101732.30
2018-06-17T21:27:04.133Z,101731.55
2018-06-17T21:29:32.775Z,101736.09
2018-06-17T21:32:01.417Z,101734.73
2018-06-17T21:34:29.945Z,101731.72
2018-06-17T21:36:58.596Z,101728.63
2018-06-17T21:39:27.325Z,101731.32
2018-06-17T21:41:55.908Z,101726.64
2018-06-17T21:44:24.544Z,101719.72
2018-06-17T21:46:52.770Z,101721.64
2018-06-17T21:49:21.410Z,101723.05
2018-06-17T21:51:49.677Z,101727.91
2018-06-17T21:54:18.179Z,101725.12
2018-06-17T21:56:46.792Z,101724.03
2018-06-17T21:59:15.497Z,101722.36
2018-06-17T22:01:43.880Z,101723.94
2018-06-17T22:04:49.532Z,101724.75
2018-06-17T22:07:17.980Z,101723.00
2018-06-17T22:09:52.124Z,101725.14
2018-06-17T22:12:26.553Z,101724.58
2018-06-17T22:15:00.579Z,101724.89
2018-06-17T22:17:34.591Z,101726.30
2018-06-17T22:20:03.154Z,101730.98
2018-06-17T22:22:31.919Z,101737.72
2018-06-17T22:25:00.534Z,101736.14
2018-06-17T22:27:29.221Z,101735.34
2018-06-17T22:29:57.468Z,101733.94
2018-06-17T22:32:25.843Z,101731.78
2018-06-17T22:34:54.572Z,101736.14
2018-06-17T22:37:23.195Z,101737.23
2018-06-17T22:39:51.699Z,101735.59
2018-06-17T22:42:20.628Z,101731.66
2018-06-17T22:44:49.271Z,101733.98
2018-06-17T22:48:22.031Z,101734.84
2018-06-17T22:50:50.388Z,101735.42
2018-06-17T22:53:35.803Z,101736.59
2018-06-17T22:56:08.948Z,101739.30
2018-06-17T22:58:42.901Z,101730.94
2018-06-17T23:01:17.062Z,101738.63
2018-06-17T23:03:51.351Z,101734.50
2018-06-17T23:06:25.568Z,101749.05
2018-06-17T23:08:59.648Z,101753.88
2018-06-17T23:11:28.452Z,101750.86
2018-06-17T23:13:57.054Z,101742.91
2018-06-17T23:16:25.674Z,101743.48
2018-06-17T23:18:54.265Z,101747.58
2018-06-17T23:21:22.917Z,101753.16
2018-06-17T23:23:51.326Z,101751.00
2018-06-17T23:26:19.707Z,101752.13
2018-06-17T23:28:48.177Z,101748.30
2018-06-17T23:31:16.649Z,101757.66
2018-06-17T23:33:45.403Z,101756.84
2018-06-17T23:36:14.100Z,101753.38
2018-06-17T23:38:42.545Z,101746.94
2018-06-17T23:41:14.514Z,101740.02
2018-06-17T23:43:44.014Z,101742.31
2018-06-17T23:46:17.926Z,101756.89
2018-06-17T23:48:52.162Z,101756.40
2018-06-17T23:51:26.412Z,101748.70
2018-06-17T23:54:00.550Z,101742.27
2018-06-17T23:56:29.142Z,101751.14
2018-06-17T23:58:57.697Z,101756.30
